UAL50 LEMD-KEWR
Flight info
| Callsign | UAL50 |
|---|---|
| Flight time | N/A |
| Altitude | 31000 |
| Route | ZMR N733 DESAT DCT STG/N0463F320 DCT PASAS/M080F340 DCT 48N020W 50N030W/M080F360 52N040W 51N050W DCT ALLRY/N0463F360 DCT FROSS DCT KJOHN DCT HANAA/N0408F240 FLOSI4 |
| Aircraft | B764/H-SDE3FGHIM3RWXY/LB1 |
Departure
| Time | 2026-05-05 22:53 |
|---|---|
| Airport | Adolfo Suárez Madrid–Barajas Airport (LEMD) |
Arrival
| Time | N/A |
|---|---|
| Airport | Newark Liberty International Airport (KEWR) |
| Time | Latitude | Longitude | Altitude | Speed | Heading |
|---|---|---|---|---|---|
| 2026-05-05 22:00 | 40.46053 | -3.57468 | 1963 ft | 0 kts | 314° |
| 2026-05-05 22:28 | 40.46053 | -3.57467 | 1963 ft | 0 kts | 314° |
| 2026-05-05 22:28 | 40.46043 | -3.57454 | 1963 ft | 3 kts | 314° |
| 2026-05-05 22:29 | 40.46026 | -3.57433 | 1963 ft | 3 kts | 314° |
| 2026-05-05 22:29 | 40.46011 | -3.57412 | 1963 ft | 2 kts | 327° |
| 2026-05-05 22:29 | 40.45997 | -3.57406 | 1963 ft | 1 kts | 10° |
| 2026-05-05 22:29 | 40.45986 | -3.57415 | 1963 ft | 3 kts | 49° |
| 2026-05-05 22:30 | 40.45970 | -3.57439 | 1963 ft | 3 kts | 47° |
| 2026-05-05 22:30 | 40.45966 | -3.57446 | 1963 ft | 0 kts | 45° |
| 2026-05-05 22:30 | 40.45966 | -3.57445 | 1963 ft | 0 kts | 45° |
| 2026-05-05 22:34 | 40.45969 | -3.57441 | 1963 ft | 2 kts | 45° |
| 2026-05-05 22:34 | 40.45999 | -3.57401 | 1963 ft | 10 kts | 45° |
| 2026-05-05 22:35 | 40.46064 | -3.57315 | 1963 ft | 12 kts | 45° |
| 2026-05-05 22:35 | 40.46094 | -3.57221 | 1963 ft | 11 kts | 107° |
| 2026-05-05 22:35 | 40.46053 | -3.57141 | 1963 ft | 9 kts | 109° |
| 2026-05-05 22:35 | 40.46068 | -3.57065 | 1963 ft | 8 kts | 51° |
| 2026-05-05 22:36 | 40.46107 | -3.57005 | 1963 ft | 8 kts | 49° |
| 2026-05-05 22:36 | 40.46145 | -3.56947 | 1963 ft | 8 kts | 49° |
| 2026-05-05 22:36 | 40.46187 | -3.56890 | 1963 ft | 8 kts | 44° |
| 2026-05-05 22:36 | 40.46242 | -3.56835 | 1963 ft | 11 kts | 34° |
| 2026-05-05 22:37 | 40.46303 | -3.56758 | 1963 ft | 13 kts | 60° |
| 2026-05-05 22:37 | 40.46376 | -3.56689 | 1963 ft | 14 kts | 7° |
| 2026-05-05 22:37 | 40.46487 | -3.56684 | 1963 ft | 16 kts | 355° |
| 2026-05-05 22:37 | 40.46603 | -3.56678 | 1963 ft | 15 kts | 356° |
| 2026-05-05 22:38 | 40.46697 | -3.56670 | 1963 ft | 13 kts | 2° |
| 2026-05-05 22:38 | 40.46788 | -3.56663 | 1963 ft | 13 kts | 2° |
| 2026-05-05 22:38 | 40.46880 | -3.56659 | 1963 ft | 13 kts | 357° |
| 2026-05-05 22:38 | 40.46966 | -3.56699 | 1963 ft | 13 kts | 326° |
| 2026-05-05 22:39 | 40.47041 | -3.56769 | 1963 ft | 13 kts | 322° |
| 2026-05-05 22:39 | 40.47117 | -3.56845 | 1963 ft | 13 kts | 324° |
| 2026-05-05 22:39 | 40.47194 | -3.56914 | 1963 ft | 13 kts | 340° |
| 2026-05-05 22:39 | 40.47280 | -3.56912 | 1963 ft | 12 kts | 20° |
| 2026-05-05 22:40 | 40.47331 | -3.56865 | 1963 ft | 5 kts | 40° |
| 2026-05-05 22:40 | 40.47360 | -3.56851 | 1963 ft | 3 kts | 357° |
| 2026-05-05 22:40 | 40.47386 | -3.56864 | 1963 ft | 4 kts | 326° |
| 2026-05-05 22:40 | 40.47425 | -3.56902 | 1963 ft | 9 kts | 321° |
| 2026-05-05 22:41 | 40.47487 | -3.56962 | 1963 ft | 11 kts | 320° |
| 2026-05-05 22:41 | 40.47549 | -3.57029 | 1963 ft | 11 kts | 321° |
| 2026-05-05 22:41 | 40.47612 | -3.57093 | 1963 ft | 11 kts | 321° |
| 2026-05-05 22:41 | 40.47673 | -3.57157 | 1963 ft | 11 kts | 321° |
| 2026-05-05 22:42 | 40.47736 | -3.57224 | 1963 ft | 11 kts | 320° |
| 2026-05-05 22:42 | 40.47798 | -3.57286 | 1963 ft | 11 kts | 323° |
| 2026-05-05 22:42 | 40.47872 | -3.57357 | 1963 ft | 14 kts | 323° |
| 2026-05-05 22:42 | 40.47958 | -3.57446 | 1963 ft | 17 kts | 320° |
| 2026-05-05 22:43 | 40.48062 | -3.57552 | 1963 ft | 20 kts | 320° |
| 2026-05-05 22:43 | 40.48186 | -3.57681 | 1963 ft | 25 kts | 322° |
| 2026-05-05 22:43 | 40.48330 | -3.57825 | 1963 ft | 24 kts | 322° |
| 2026-05-05 22:43 | 40.48463 | -3.57951 | 1963 ft | 23 kts | 328° |
| 2026-05-05 22:44 | 40.48590 | -3.58043 | 1963 ft | 20 kts | 340° |
| 2026-05-05 22:44 | 40.48726 | -3.58051 | 1963 ft | 18 kts | 1° |
| 2026-05-05 22:44 | 40.48787 | -3.58050 | 1963 ft | 7 kts | 359° |
| 2026-05-05 22:44 | 40.48839 | -3.58044 | 1963 ft | 6 kts | 24° |
| 2026-05-05 22:45 | 40.48859 | -3.58003 | 1963 ft | 5 kts | 75° |
| 2026-05-05 22:45 | 40.48859 | -3.57952 | 1963 ft | 6 kts | 90° |
| 2026-05-05 22:45 | 40.48859 | -3.57887 | 1963 ft | 7 kts | 87° |
| 2026-05-05 22:45 | 40.48879 | -3.57837 | 1963 ft | 5 kts | 31° |
| 2026-05-05 22:46 | 40.48913 | -3.57831 | 1963 ft | 5 kts | 359° |
| 2026-05-05 22:46 | 40.48954 | -3.57832 | 1963 ft | 6 kts | 359° |
| 2026-05-05 22:46 | 40.49001 | -3.57832 | 1963 ft | 6 kts | 359° |
| 2026-05-05 22:46 | 40.49050 | -3.57833 | 1963 ft | 7 kts | 359° |
| 2026-05-05 22:47 | 40.49102 | -3.57833 | 1963 ft | 8 kts | 359° |
| 2026-05-05 22:47 | 40.49164 | -3.57824 | 1963 ft | 7 kts | 24° |
| 2026-05-05 22:47 | 40.49178 | -3.57786 | 1963 ft | 4 kts | 88° |
| 2026-05-05 22:47 | 40.49179 | -3.57736 | 1963 ft | 6 kts | 89° |
| 2026-05-05 22:48 | 40.49179 | -3.57668 | 1963 ft | 7 kts | 88° |
| 2026-05-05 22:48 | 40.49183 | -3.57626 | 1963 ft | 2 kts | 76° |
| 2026-05-05 22:48 | 40.49187 | -3.57611 | 1963 ft | 0 kts | 70° |
| 2026-05-05 22:51 | 40.49194 | -3.57586 | 1963 ft | 6 kts | 70° |
| 2026-05-05 22:51 | 40.49220 | -3.57504 | 1963 ft | 13 kts | 62° |
| 2026-05-05 22:51 | 40.49262 | -3.57461 | 1963 ft | 6 kts | 0° |
| 2026-05-05 22:51 | 40.49274 | -3.57462 | 1963 ft | 0 kts | 359° |
| 2026-05-05 22:53 | 40.49430 | -3.57462 | 1963 ft | 56 kts | 360° |
| 2026-05-05 22:53 | 40.50071 | -3.57465 | 1964 ft | 127 kts | 359° |
| 2026-05-05 22:53 | 40.51183 | -3.57470 | 1971 ft | 190 kts | 1° |
| 2026-05-05 22:53 | 40.52599 | -3.57450 | 2606 ft | 208 kts | 360° |
| 2026-05-05 22:54 | 40.53973 | -3.57441 | 3697 ft | 204 kts | 360° |
| 2026-05-05 22:54 | 40.55438 | -3.57311 | 4475 ft | 217 kts | 12° |
| 2026-05-05 22:54 | 40.56866 | -3.56778 | 5513 ft | 213 kts | 17° |
| 2026-05-05 22:54 | 40.58345 | -3.56209 | 5837 ft | 238 kts | 14° |
| 2026-05-05 22:55 | 40.60074 | -3.55579 | 6042 ft | 274 kts | 14° |
| 2026-05-05 22:55 | 40.61973 | -3.54881 | 6578 ft | 299 kts | 14° |
| 2026-05-05 22:55 | 40.64097 | -3.54234 | 7045 ft | 327 kts | 4° |
| 2026-05-05 22:55 | 40.66457 | -3.54054 | 7808 ft | 348 kts | 2° |
| 2026-05-05 22:56 | 40.68840 | -3.53810 | 9116 ft | 352 kts | 2° |
| 2026-05-05 22:56 | 40.71282 | -3.53722 | 10332 ft | 358 kts | 353° |
| 2026-05-05 22:56 | 40.73692 | -3.54447 | 11633 ft | 359 kts | 335° |
| 2026-05-05 22:56 | 40.75833 | -3.56059 | 12839 ft | 362 kts | 320° |
| 2026-05-05 22:57 | 40.77679 | -3.58413 | 13042 ft | 376 kts | 305° |
| 2026-05-05 22:57 | 40.78903 | -3.61361 | 14186 ft | 365 kts | 291° |
| 2026-05-05 22:57 | 40.79939 | -3.64364 | 15645 ft | 364 kts | 294° |
| 2026-05-05 22:57 | 40.81049 | -3.67340 | 16876 ft | 368 kts | 293° |
| 2026-05-05 22:58 | 40.82173 | -3.70349 | 18113 ft | 372 kts | 293° |
| 2026-05-05 22:58 | 40.83320 | -3.73421 | 19305 ft | 377 kts | 293° |
| 2026-05-05 22:58 | 40.84468 | -3.76477 | 20483 ft | 382 kts | 292° |
| 2026-05-05 22:58 | 40.85639 | -3.79610 | 21660 ft | 385 kts | 292° |
| 2026-05-05 22:59 | 40.86821 | -3.82764 | 22772 ft | 389 kts | 291° |
| 2026-05-05 22:59 | 40.88035 | -3.86011 | 23786 ft | 394 kts | 291° |
| 2026-05-05 22:59 | 40.89230 | -3.89206 | 24755 ft | 398 kts | 291° |
| 2026-05-05 22:59 | 40.90465 | -3.92517 | 25599 ft | 404 kts | 291° |
| 2026-05-05 23:00 | 40.92966 | -3.99230 | 27166 ft | 414 kts | 291° |
| 2026-05-05 23:00 | 40.94244 | -4.02661 | 27971 ft | 417 kts | 291° |
| 2026-05-05 23:00 | 40.95520 | -4.06097 | 28591 ft | 423 kts | 291° |
| 2026-05-05 23:01 | 40.96827 | -4.09612 | 29303 ft | 426 kts | 291° |
| 2026-05-05 23:01 | 40.98139 | -4.13152 | 29857 ft | 431 kts | 291° |
| 2026-05-05 23:01 | 40.99459 | -4.16713 | 30469 ft | 433 kts | 291° |
| 2026-05-05 23:01 | 41.00784 | -4.20297 | 30905 ft | 439 kts | 291° |
| 2026-05-05 23:02 | 41.03466 | -4.27510 | 31009 ft | 434 kts | 291° |
| 2026-05-05 23:02 | 41.06109 | -4.34622 | 31012 ft | 435 kts | 291° |
| 2026-05-05 23:03 | 41.08783 | -4.41840 | 31010 ft | 437 kts | 292° |
| 2026-05-05 23:03 | 41.11441 | -4.49030 | 31004 ft | 436 kts | 292° |
| 2026-05-05 23:04 | 41.14108 | -4.56258 | 31008 ft | 436 kts | 292° |
| 2026-05-05 23:04 | 41.16754 | -4.63451 | 31002 ft | 437 kts | 292° |
| 2026-05-05 23:05 | 41.19408 | -4.70694 | 31014 ft | 439 kts | 291° |
| 2026-05-05 23:05 | 41.22073 | -4.77990 | 31018 ft | 438 kts | 292° |
| 2026-05-05 23:06 | 41.24726 | -4.85250 | 31017 ft | 439 kts | 292° |
| 2026-05-05 23:06 | 41.27366 | -4.92501 | 31012 ft | 440 kts | 292° |
| 2026-05-05 23:07 | 41.30035 | -4.99848 | 31014 ft | 440 kts | 292° |
| 2026-05-05 23:07 | 41.32677 | -5.07141 | 31011 ft | 440 kts | 292° |
| 2026-05-05 23:08 | 41.35319 | -5.14453 | 31010 ft | 442 kts | 292° |
| 2026-05-05 23:08 | 41.37977 | -5.21829 | 31011 ft | 442 kts | 292° |
| 2026-05-05 23:09 | 41.40624 | -5.29191 | 31010 ft | 441 kts | 293° |
| 2026-05-05 23:09 | 41.43263 | -5.36555 | 31014 ft | 442 kts | 293° |
| 2026-05-05 23:10 | 41.45888 | -5.43896 | 31012 ft | 442 kts | 293° |
| 2026-05-05 23:10 | 41.48523 | -5.51281 | 31012 ft | 442 kts | 293° |
| 2026-05-05 23:11 | 41.51155 | -5.58681 | 31016 ft | 443 kts | 293° |
| 2026-05-05 23:11 | 41.53900 | -5.66064 | 31009 ft | 445 kts | 300° |
| 2026-05-05 23:12 | 41.57467 | -5.72797 | 31020 ft | 447 kts | 302° |
| 2026-05-05 23:12 | 41.61050 | -5.79557 | 31017 ft | 447 kts | 302° |
| 2026-05-05 23:13 | 41.64605 | -5.86310 | 31017 ft | 447 kts | 303° |
| 2026-05-05 23:13 | 41.68187 | -5.93142 | 31013 ft | 448 kts | 303° |
| 2026-05-05 23:14 | 41.71751 | -5.99958 | 31008 ft | 448 kts | 303° |
| 2026-05-05 23:14 | 41.75304 | -6.06770 | 31004 ft | 448 kts | 303° |
| 2026-05-05 23:15 | 41.78852 | -6.13591 | 30997 ft | 449 kts | 303° |
| 2026-05-05 23:15 | 41.82399 | -6.20423 | 31005 ft | 447 kts | 303° |
| 2026-05-05 23:16 | 41.85926 | -6.27266 | 31003 ft | 448 kts | 303° |
| 2026-05-05 23:16 | 41.89455 | -6.34144 | 31005 ft | 448 kts | 303° |
| 2026-05-05 23:17 | 41.92977 | -6.41019 | 31008 ft | 448 kts | 303° |
| 2026-05-05 23:17 | 41.96502 | -6.47917 | 30998 ft | 449 kts | 303° |
| 2026-05-05 23:18 | 42.00009 | -6.54796 | 30997 ft | 448 kts | 303° |
| 2026-05-05 23:18 | 42.03521 | -6.61699 | 30992 ft | 449 kts | 303° |
| 2026-05-05 23:19 | 42.07049 | -6.68651 | 30995 ft | 448 kts | 303° |
| 2026-05-05 23:19 | 42.10551 | -6.75566 | 30984 ft | 449 kts | 303° |
| 2026-05-05 23:20 | 42.14039 | -6.82471 | 30983 ft | 449 kts | 303° |
| 2026-05-05 23:20 | 42.17542 | -6.89420 | 30995 ft | 448 kts | 303° |
| 2026-05-05 23:21 | 42.21031 | -6.96358 | 31001 ft | 449 kts | 303° |
| 2026-05-05 23:21 | 42.24527 | -7.03325 | 31007 ft | 449 kts | 303° |
| 2026-05-05 23:22 | 42.28026 | -7.10315 | 31003 ft | 448 kts | 303° |
| 2026-05-05 23:22 | 42.31505 | -7.17281 | 31004 ft | 449 kts | 304° |
| 2026-05-05 23:23 | 42.34961 | -7.24215 | 31002 ft | 449 kts | 304° |
| 2026-05-05 23:23 | 42.37906 | -7.30141 | 31009 ft | 448 kts | 304° |
| 2026-05-05 23:24 | 42.41377 | -7.37137 | 31021 ft | 447 kts | 304° |
| 2026-05-05 23:24 | 42.44843 | -7.44138 | 31030 ft | 450 kts | 304° |
| 2026-05-05 23:25 | 42.48306 | -7.51151 | 31037 ft | 449 kts | 304° |
| 2026-05-05 23:25 | 42.51767 | -7.58174 | 31039 ft | 449 kts | 304° |
| 2026-05-05 23:26 | 42.55208 | -7.65175 | 31033 ft | 450 kts | 304° |
| 2026-05-05 23:26 | 42.58668 | -7.72232 | 31029 ft | 449 kts | 304° |
| 2026-05-05 23:27 | 42.62104 | -7.79256 | 31029 ft | 449 kts | 304° |
| 2026-05-05 23:27 | 42.65554 | -7.86326 | 31027 ft | 449 kts | 304° |
| 2026-05-05 23:28 | 42.68992 | -7.93386 | 31026 ft | 449 kts | 304° |
| 2026-05-05 23:28 | 42.72433 | -8.00468 | 31022 ft | 450 kts | 304° |
| 2026-05-05 23:29 | 42.75858 | -8.07536 | 31024 ft | 449 kts | 304° |
| 2026-05-05 23:29 | 42.79261 | -8.14575 | 31036 ft | 448 kts | 305° |
| 2026-05-05 23:30 | 42.82686 | -8.21675 | 31035 ft | 448 kts | 304° |
| 2026-05-05 23:30 | 42.86074 | -8.28716 | 31041 ft | 449 kts | 304° |
| 2026-05-05 23:31 | 42.89484 | -8.35823 | 31040 ft | 448 kts | 305° |
| 2026-05-05 23:31 | 42.92876 | -8.42900 | 31041 ft | 447 kts | 305° |
| 2026-05-05 23:32 | 42.96319 | -8.49941 | 31038 ft | 447 kts | 306° |
| 2026-05-05 23:32 | 42.99757 | -8.56987 | 31035 ft | 447 kts | 306° |
| 2026-05-05 23:33 | 43.03208 | -8.64077 | 31028 ft | 448 kts | 306° |
| 2026-05-05 23:33 | 43.06624 | -8.71114 | 31028 ft | 447 kts | 305° |
| 2026-05-05 23:34 | 43.10062 | -8.78215 | 31027 ft | 448 kts | 305° |
| 2026-05-05 23:34 | 43.13475 | -8.85278 | 31027 ft | 447 kts | 306° |
| 2026-05-05 23:35 | 43.16891 | -8.92364 | 31032 ft | 448 kts | 306° |
| 2026-05-05 23:35 | 43.20306 | -8.99466 | 31031 ft | 447 kts | 306° |
| 2026-05-05 23:36 | 43.23710 | -9.06563 | 31035 ft | 446 kts | 306° |
| 2026-05-05 23:36 | 43.27112 | -9.13671 | 31030 ft | 445 kts | 306° |
| 2026-05-05 23:37 | 43.30475 | -9.20716 | 31040 ft | 444 kts | 306° |
| 2026-05-05 23:37 | 43.33855 | -9.27813 | 31035 ft | 442 kts | 306° |
| 2026-05-05 23:38 | 43.37201 | -9.34855 | 31035 ft | 441 kts | 306° |
| 2026-05-05 23:38 | 43.40523 | -9.41866 | 31037 ft | 440 kts | 307° |
| 2026-05-05 23:39 | 43.43855 | -9.48911 | 31040 ft | 441 kts | 307° |
| 2026-05-05 23:39 | 43.47187 | -9.55975 | 31035 ft | 440 kts | 307° |
| 2026-05-05 23:40 | 43.50507 | -9.63029 | 31042 ft | 440 kts | 307° |
| 2026-05-05 23:40 | 43.53813 | -9.70076 | 31050 ft | 438 kts | 307° |
| 2026-05-05 23:41 | 43.57109 | -9.77114 | 31050 ft | 438 kts | 307° |
| 2026-05-05 23:41 | 43.60394 | -9.84143 | 31051 ft | 437 kts | 307° |
| 2026-05-05 23:42 | 43.63663 | -9.91158 | 31053 ft | 436 kts | 307° |
| 2026-05-05 23:42 | 43.66940 | -9.98204 | 31053 ft | 436 kts | 307° |
| 2026-05-05 23:43 | 43.70201 | -10.05235 | 31052 ft | 435 kts | 307° |
| 2026-05-05 23:43 | 43.73448 | -10.12256 | 31053 ft | 434 kts | 307° |
| 2026-05-05 23:44 | 43.76677 | -10.19247 | 31055 ft | 436 kts | 307° |
| 2026-05-05 23:44 | 43.79937 | -10.26327 | 31058 ft | 435 kts | 307° |
| 2026-05-05 23:45 | 43.83150 | -10.33323 | 31057 ft | 433 kts | 307° |
| 2026-05-05 23:45 | 43.86400 | -10.40412 | 31056 ft | 438 kts | 307° |
| 2026-05-05 23:46 | 43.89619 | -10.47456 | 31056 ft | 434 kts | 307° |
| 2026-05-05 23:46 | 43.92857 | -10.54555 | 31060 ft | 436 kts | 308° |
| 2026-05-05 23:47 | 43.96072 | -10.61623 | 31055 ft | 436 kts | 307° |
| 2026-05-05 23:47 | 43.99309 | -10.68759 | 31060 ft | 435 kts | 307° |
| 2026-05-05 23:48 | 44.02512 | -10.75831 | 31065 ft | 436 kts | 307° |
| 2026-05-05 23:48 | 44.05722 | -10.82938 | 31067 ft | 435 kts | 307° |
| 2026-05-05 23:49 | 44.08917 | -10.90030 | 31068 ft | 435 kts | 307° |
| 2026-05-05 23:49 | 44.12126 | -10.97172 | 31083 ft | 435 kts | 307° |
| 2026-05-05 23:50 | 44.15329 | -11.04318 | 31076 ft | 436 kts | 307° |
| 2026-05-05 23:50 | 44.18522 | -11.11455 | 31090 ft | 436 kts | 307° |
| 2026-05-05 23:51 | 44.21719 | -11.18624 | 31084 ft | 436 kts | 307° |
| 2026-05-05 23:51 | 44.24901 | -11.25773 | 31088 ft | 437 kts | 307° |
| 2026-05-05 23:52 | 44.28097 | -11.32977 | 31093 ft | 438 kts | 307° |
| 2026-05-05 23:52 | 44.31277 | -11.40159 | 31095 ft | 438 kts | 307° |
| 2026-05-05 23:53 | 44.34489 | -11.47432 | 31099 ft | 439 kts | 307° |
| 2026-05-05 23:53 | 44.37669 | -11.54651 | 31098 ft | 439 kts | 307° |
| 2026-05-05 23:54 | 44.40846 | -11.61882 | 31103 ft | 439 kts | 306° |
| 2026-05-05 23:54 | 44.44041 | -11.69169 | 31114 ft | 442 kts | 306° |
| 2026-05-05 23:55 | 44.47242 | -11.76493 | 31114 ft | 441 kts | 306° |
| 2026-05-05 23:55 | 44.50431 | -11.83807 | 31115 ft | 442 kts | 305° |
| 2026-05-05 23:56 | 44.53625 | -11.91148 | 31123 ft | 443 kts | 305° |
| 2026-05-05 23:56 | 44.56802 | -11.98472 | 31125 ft | 443 kts | 305° |
| 2026-05-05 23:57 | 44.60000 | -12.05863 | 31131 ft | 443 kts | 305° |
| 2026-05-05 23:57 | 44.63172 | -12.13212 | 31129 ft | 444 kts | 305° |
| 2026-05-05 23:58 | 44.66367 | -12.20634 | 31136 ft | 445 kts | 305° |
| 2026-05-05 23:58 | 44.69566 | -12.28087 | 31134 ft | 446 kts | 305° |
| 2026-05-05 23:59 | 44.72743 | -12.35505 | 31137 ft | 446 kts | 305° |
| 2026-05-05 23:59 | 44.75935 | -12.42978 | 31139 ft | 446 kts | 304° |
| 2026-05-06 00:00 | 44.79118 | -12.50449 | 31141 ft | 448 kts | 304° |
| 2026-05-06 00:00 | 44.82312 | -12.57970 | 31138 ft | 447 kts | 304° |
| 2026-05-06 00:01 | 44.85485 | -12.65457 | 31141 ft | 447 kts | 304° |
| 2026-05-06 00:01 | 44.88676 | -12.73006 | 31149 ft | 449 kts | 303° |
| 2026-05-06 00:02 | 44.91843 | -12.80522 | 31147 ft | 449 kts | 303° |
| 2026-05-06 00:02 | 44.95044 | -12.88137 | 31149 ft | 450 kts | 303° |
| 2026-05-06 00:03 | 44.98207 | -12.95679 | 31151 ft | 450 kts | 303° |
| 2026-05-06 00:03 | 45.01520 | -13.03168 | 31154 ft | 449 kts | 307° |
| 2026-05-06 00:04 | 45.05049 | -13.10424 | 31155 ft | 451 kts | 306° |
| 2026-05-06 00:04 | 45.08566 | -13.17713 | 31154 ft | 450 kts | 306° |
| 2026-05-06 00:05 | 45.13868 | -13.28742 | 31166 ft | 453 kts | 306° |
| 2026-05-06 00:06 | 45.17385 | -13.36086 | 31166 ft | 451 kts | 306° |
| 2026-05-06 00:06 | 45.20891 | -13.43425 | 31166 ft | 453 kts | 306° |
| 2026-05-06 00:07 | 45.24994 | -13.52038 | 31169 ft | 453 kts | 306° |
| 2026-05-06 00:07 | 45.27911 | -13.58176 | 31169 ft | 453 kts | 306° |
| 2026-05-06 00:08 | 45.31421 | -13.65582 | 31172 ft | 455 kts | 305° |
| 2026-05-06 00:08 | 45.34946 | -13.73039 | 31173 ft | 455 kts | 305° |
| 2026-05-06 00:09 | 45.38457 | -13.80485 | 31176 ft | 455 kts | 305° |
| 2026-05-06 00:09 | 45.41959 | -13.87931 | 31173 ft | 456 kts | 304° |
| 2026-05-06 00:10 | 45.45504 | -13.95488 | 31834 ft | 461 kts | 304° |
| 2026-05-06 00:10 | 45.47249 | -13.99217 | 33264 ft | 446 kts | 304° |
| 2026-05-06 00:10 | 45.48922 | -14.02800 | 34229 ft | 435 kts | 304° |
| 2026-05-06 00:10 | 45.50579 | -14.06348 | 34115 ft | 436 kts | 304° |
| 2026-05-06 00:11 | 45.52251 | -14.09934 | 34190 ft | 435 kts | 304° |
| 2026-05-06 00:11 | 45.55615 | -14.17159 | 34175 ft | 436 kts | 304° |
| 2026-05-06 00:12 | 45.58944 | -14.24332 | 34175 ft | 434 kts | 304° |
| 2026-05-06 00:12 | 45.62262 | -14.31497 | 34173 ft | 435 kts | 304° |
| 2026-05-06 00:13 | 45.65591 | -14.38704 | 34176 ft | 436 kts | 304° |
| 2026-05-06 00:13 | 45.68922 | -14.45932 | 34183 ft | 436 kts | 304° |
| 2026-05-06 00:14 | 45.72243 | -14.53160 | 34175 ft | 435 kts | 304° |
| 2026-05-06 00:14 | 45.75543 | -14.60358 | 34183 ft | 436 kts | 304° |
| 2026-05-06 00:15 | 45.78858 | -14.67609 | 34182 ft | 436 kts | 304° |
| 2026-05-06 00:15 | 45.82151 | -14.74829 | 34189 ft | 436 kts | 304° |
| 2026-05-06 00:16 | 45.85457 | -14.82095 | 34191 ft | 437 kts | 304° |
| 2026-05-06 00:16 | 45.88758 | -14.89371 | 34191 ft | 436 kts | 304° |
| 2026-05-06 00:17 | 45.92062 | -14.96672 | 34191 ft | 437 kts | 304° |
| 2026-05-06 00:17 | 45.95369 | -15.04001 | 34193 ft | 437 kts | 304° |
| 2026-05-06 00:18 | 45.98661 | -15.11314 | 34193 ft | 437 kts | 304° |
| 2026-05-06 00:18 | 46.01955 | -15.18648 | 34196 ft | 438 kts | 304° |
| 2026-05-06 00:19 | 46.05232 | -15.25966 | 34195 ft | 438 kts | 304° |
| 2026-05-06 00:19 | 46.08504 | -15.33292 | 34197 ft | 438 kts | 304° |
| 2026-05-06 00:20 | 46.11786 | -15.40658 | 34207 ft | 438 kts | 304° |
| 2026-05-06 00:20 | 46.15070 | -15.48049 | 34204 ft | 438 kts | 304° |
| 2026-05-06 00:21 | 46.18351 | -15.55451 | 34206 ft | 439 kts | 304° |
| 2026-05-06 00:21 | 46.21603 | -15.62811 | 34208 ft | 439 kts | 304° |
| 2026-05-06 00:22 | 46.24886 | -15.70258 | 34211 ft | 440 kts | 303° |
| 2026-05-06 00:22 | 46.28151 | -15.77686 | 34213 ft | 439 kts | 303° |
| 2026-05-06 00:23 | 46.31405 | -15.85107 | 34211 ft | 439 kts | 303° |
| 2026-05-06 00:23 | 46.34665 | -15.92563 | 34214 ft | 440 kts | 303° |
| 2026-05-06 00:24 | 46.37918 | -16.00021 | 34214 ft | 440 kts | 303° |
| 2026-05-06 00:24 | 46.41164 | -16.07484 | 34221 ft | 440 kts | 303° |
| 2026-05-06 00:25 | 46.44421 | -16.14992 | 34223 ft | 439 kts | 304° |
| 2026-05-06 00:25 | 46.47654 | -16.22465 | 34224 ft | 438 kts | 304° |
| 2026-05-06 00:26 | 46.50867 | -16.29911 | 34224 ft | 439 kts | 304° |
| 2026-05-06 00:26 | 46.54068 | -16.37352 | 34229 ft | 437 kts | 304° |
| 2026-05-06 00:27 | 46.57292 | -16.44864 | 34236 ft | 437 kts | 304° |
| 2026-05-06 00:27 | 46.60484 | -16.52323 | 34236 ft | 436 kts | 304° |
| 2026-05-06 00:28 | 46.63667 | -16.59778 | 34238 ft | 436 kts | 304° |
| 2026-05-06 00:28 | 46.66848 | -16.67253 | 34241 ft | 436 kts | 303° |
| 2026-05-06 00:29 | 46.70010 | -16.74702 | 34244 ft | 436 kts | 304° |
| 2026-05-06 00:29 | 46.73181 | -16.82191 | 34249 ft | 434 kts | 304° |
| 2026-05-06 00:30 | 46.76343 | -16.89679 | 34249 ft | 435 kts | 304° |
| 2026-05-06 00:30 | 46.79483 | -16.97137 | 34254 ft | 433 kts | 304° |
| 2026-05-06 00:31 | 46.82625 | -17.04618 | 34252 ft | 434 kts | 304° |
| 2026-05-06 00:31 | 46.85752 | -17.12085 | 34255 ft | 433 kts | 304° |
| 2026-05-06 00:32 | 46.88900 | -17.19621 | 34260 ft | 434 kts | 304° |
| 2026-05-06 00:32 | 46.92030 | -17.27134 | 34257 ft | 434 kts | 304° |
| 2026-05-06 00:33 | 46.95148 | -17.34640 | 34262 ft | 434 kts | 304° |
| 2026-05-06 00:33 | 46.98266 | -17.42169 | 34267 ft | 434 kts | 304° |
| 2026-05-06 00:34 | 47.01383 | -17.49714 | 34266 ft | 435 kts | 304° |
| 2026-05-06 00:34 | 47.04504 | -17.57289 | 34264 ft | 435 kts | 303° |
| 2026-05-06 00:35 | 47.07616 | -17.64864 | 34266 ft | 435 kts | 303° |
| 2026-05-06 00:35 | 47.10730 | -17.72465 | 34274 ft | 436 kts | 303° |
| 2026-05-06 00:36 | 47.13843 | -17.80083 | 34278 ft | 436 kts | 303° |
| 2026-05-06 00:36 | 47.16933 | -17.87671 | 34282 ft | 436 kts | 302° |
| 2026-05-06 00:37 | 47.20034 | -17.95303 | 34284 ft | 436 kts | 302° |
| 2026-05-06 00:37 | 47.23120 | -18.02921 | 34282 ft | 437 kts | 302° |
| 2026-05-06 00:38 | 47.26228 | -18.10612 | 34286 ft | 437 kts | 302° |
| 2026-05-06 00:38 | 47.29310 | -18.18262 | 34288 ft | 436 kts | 302° |
| 2026-05-06 00:39 | 47.32378 | -18.25901 | 34294 ft | 436 kts | 302° |
| 2026-05-06 00:39 | 47.35446 | -18.33560 | 34299 ft | 436 kts | 302° |
| 2026-05-06 00:40 | 47.38533 | -18.41289 | 34295 ft | 436 kts | 302° |
| 2026-05-06 00:40 | 47.41586 | -18.48951 | 34302 ft | 436 kts | 302° |
| 2026-05-06 00:41 | 47.44651 | -18.56669 | 34306 ft | 436 kts | 302° |
| 2026-05-06 00:41 | 47.47691 | -18.64344 | 34308 ft | 437 kts | 302° |
| 2026-05-06 00:42 | 47.50750 | -18.72091 | 34307 ft | 436 kts | 301° |
| 2026-05-06 00:42 | 47.53786 | -18.79801 | 34312 ft | 436 kts | 301° |
| 2026-05-06 00:43 | 47.56811 | -18.87503 | 34314 ft | 437 kts | 301° |
| 2026-05-06 00:43 | 47.59853 | -18.95273 | 34313 ft | 436 kts | 301° |
| 2026-05-06 00:44 | 47.62884 | -19.03036 | 34317 ft | 436 kts | 301° |
| 2026-05-06 00:44 | 47.65903 | -19.10790 | 34318 ft | 437 kts | 301° |
| 2026-05-06 00:45 | 47.68916 | -19.18553 | 34320 ft | 436 kts | 301° |
| 2026-05-06 00:45 | 47.71929 | -19.26338 | 34322 ft | 436 kts | 300° |
| 2026-05-06 00:46 | 47.74933 | -19.34122 | 34323 ft | 437 kts | 300° |
| 2026-05-06 00:46 | 47.77935 | -19.41922 | 34323 ft | 436 kts | 300° |
| 2026-05-06 00:47 | 47.80918 | -19.49696 | 34327 ft | 436 kts | 300° |
| 2026-05-06 00:47 | 47.83918 | -19.57540 | 34327 ft | 437 kts | 300° |
| 2026-05-06 00:48 | 47.86914 | -19.65392 | 34330 ft | 436 kts | 299° |
| 2026-05-06 00:48 | 47.89897 | -19.73236 | 34334 ft | 437 kts | 299° |
| 2026-05-06 00:49 | 47.92886 | -19.81120 | 34334 ft | 437 kts | 299° |
| 2026-05-06 00:49 | 47.95851 | -19.88963 | 34336 ft | 437 kts | 299° |
| 2026-05-06 00:50 | 47.98811 | -19.96819 | 34334 ft | 436 kts | 298° |
| 2026-05-06 00:50 | 48.01194 | -20.05125 | 34339 ft | 438 kts | 291° |
| 2026-05-06 00:51 | 48.03386 | -20.13573 | 34335 ft | 436 kts | 291° |
| 2026-05-06 00:51 | 48.05515 | -20.21964 | 34337 ft | 436 kts | 291° |
| 2026-05-06 00:52 | 48.07642 | -20.30439 | 34334 ft | 437 kts | 290° |
| 2026-05-06 00:52 | 48.09756 | -20.38919 | 34334 ft | 436 kts | 290° |
| 2026-05-06 00:53 | 48.11852 | -20.47365 | 34335 ft | 436 kts | 290° |
| 2026-05-06 00:53 | 48.13957 | -20.55888 | 34336 ft | 436 kts | 290° |
| 2026-05-06 00:54 | 48.16040 | -20.64354 | 34337 ft | 436 kts | 290° |
| 2026-05-06 00:54 | 48.18123 | -20.72852 | 34339 ft | 435 kts | 289° |
| 2026-05-06 00:55 | 48.20198 | -20.81350 | 34340 ft | 435 kts | 289° |
| 2026-05-06 00:55 | 48.22264 | -20.89843 | 34339 ft | 435 kts | 289° |
| 2026-05-06 00:56 | 48.24314 | -20.98305 | 34339 ft | 434 kts | 289° |
| 2026-05-06 00:56 | 48.26372 | -21.06829 | 34329 ft | 435 kts | 289° |
| 2026-05-06 00:57 | 48.28414 | -21.15323 | 34325 ft | 435 kts | 289° |
| 2026-05-06 00:57 | 48.30452 | -21.23833 | 34338 ft | 435 kts | 289° |
| 2026-05-06 00:58 | 48.32484 | -21.32346 | 34336 ft | 434 kts | 289° |
| 2026-05-06 00:58 | 48.34498 | -21.40822 | 34344 ft | 435 kts | 289° |
| 2026-05-06 00:59 | 48.36528 | -21.49397 | 34344 ft | 435 kts | 289° |
| 2026-05-06 00:59 | 48.38532 | -21.57894 | 34336 ft | 434 kts | 289° |
| 2026-05-06 01:00 | 48.40535 | -21.66425 | 34341 ft | 434 kts | 289° |
| 2026-05-06 01:00 | 48.42538 | -21.74983 | 34359 ft | 434 kts | 289° |
| 2026-05-06 01:01 | 48.44521 | -21.83494 | 34353 ft | 433 kts | 289° |
| 2026-05-06 01:01 | 48.46515 | -21.92085 | 34367 ft | 435 kts | 289° |
| 2026-05-06 01:02 | 48.48501 | -22.00675 | 34349 ft | 434 kts | 289° |
| 2026-05-06 01:02 | 48.50468 | -22.09217 | 34357 ft | 433 kts | 289° |
| 2026-05-06 01:03 | 48.52419 | -22.17720 | 34337 ft | 433 kts | 289° |
| 2026-05-06 01:03 | 48.54379 | -22.26302 | 34355 ft | 431 kts | 289° |
| 2026-05-06 01:04 | 48.56315 | -22.34811 | 34358 ft | 430 kts | 289° |
| 2026-05-06 01:04 | 48.58249 | -22.43344 | 34355 ft | 431 kts | 289° |
| 2026-05-06 01:05 | 48.60166 | -22.51838 | 34347 ft | 429 kts | 290° |
| 2026-05-06 01:05 | 48.62084 | -22.60373 | 34352 ft | 429 kts | 290° |
| 2026-05-06 01:06 | 48.63990 | -22.68885 | 34349 ft | 430 kts | 289° |
| 2026-05-06 01:06 | 48.65888 | -22.77395 | 34352 ft | 428 kts | 289° |
| 2026-05-06 01:07 | 48.67768 | -22.85866 | 34349 ft | 428 kts | 290° |
| 2026-05-06 01:07 | 48.69662 | -22.94427 | 34360 ft | 428 kts | 290° |
| 2026-05-06 01:08 | 48.71533 | -23.02918 | 34355 ft | 428 kts | 290° |
| 2026-05-06 01:08 | 48.73403 | -23.11444 | 34356 ft | 426 kts | 290° |
| 2026-05-06 01:09 | 48.75262 | -23.19953 | 34357 ft | 426 kts | 290° |
| 2026-05-06 01:09 | 48.77107 | -23.28430 | 34348 ft | 426 kts | 290° |
| 2026-05-06 01:10 | 48.78939 | -23.36888 | 34352 ft | 424 kts | 290° |
| 2026-05-06 01:10 | 48.80772 | -23.45381 | 34347 ft | 424 kts | 290° |
| 2026-05-06 01:11 | 48.82594 | -23.53861 | 34359 ft | 423 kts | 290° |
| 2026-05-06 01:11 | 48.84407 | -23.62330 | 34348 ft | 422 kts | 290° |
| 2026-05-06 01:12 | 48.86202 | -23.70753 | 34350 ft | 423 kts | 290° |
| 2026-05-06 01:12 | 48.88005 | -23.79249 | 34354 ft | 422 kts | 290° |
| 2026-05-06 01:13 | 48.89787 | -23.87680 | 34355 ft | 421 kts | 290° |
| 2026-05-06 01:13 | 48.91564 | -23.96118 | 34354 ft | 422 kts | 290° |
| 2026-05-06 01:14 | 48.94215 | -24.08779 | 34355 ft | 420 kts | 290° |
| 2026-05-06 01:14 | 48.95971 | -24.17210 | 34355 ft | 416 kts | 290° |
| 2026-05-06 01:15 | 48.97704 | -24.25563 | 34358 ft | 416 kts | 291° |
| 2026-05-06 01:15 | 48.99426 | -24.33904 | 34356 ft | 415 kts | 291° |
| 2026-05-06 01:16 | 49.01146 | -24.42266 | 34357 ft | 411 kts | 291° |
| 2026-05-06 01:16 | 49.02839 | -24.50533 | 34356 ft | 410 kts | 291° |
| 2026-05-06 01:17 | 49.04526 | -24.58798 | 34358 ft | 410 kts | 291° |
| 2026-05-06 01:17 | 49.06189 | -24.66991 | 34361 ft | 407 kts | 291° |
| 2026-05-06 01:18 | 49.07856 | -24.75224 | 34364 ft | 407 kts | 291° |
| 2026-05-06 01:18 | 49.09506 | -24.83415 | 34362 ft | 406 kts | 291° |
| 2026-05-06 01:19 | 49.11148 | -24.91610 | 34378 ft | 402 kts | 291° |
| 2026-05-06 01:19 | 49.12768 | -24.99712 | 34386 ft | 402 kts | 292° |
| 2026-05-06 01:20 | 49.14392 | -25.07875 | 34384 ft | 402 kts | 291° |
| 2026-05-06 01:20 | 49.15995 | -25.15971 | 34382 ft | 399 kts | 291° |
| 2026-05-06 01:21 | 49.17597 | -25.24090 | 34378 ft | 400 kts | 291° |
| 2026-05-06 01:21 | 49.19186 | -25.32178 | 34376 ft | 400 kts | 292° |
| 2026-05-06 01:22 | 49.20768 | -25.40264 | 34376 ft | 397 kts | 292° |
| 2026-05-06 01:22 | 49.22348 | -25.48375 | 34373 ft | 399 kts | 292° |
| 2026-05-06 01:23 | 49.23920 | -25.56475 | 34375 ft | 396 kts | 291° |
| 2026-05-06 01:23 | 49.25473 | -25.64521 | 34372 ft | 396 kts | 291° |
| 2026-05-06 01:24 | 49.27013 | -25.72527 | 34379 ft | 396 kts | 291° |
| 2026-05-06 01:24 | 49.28563 | -25.80622 | 34376 ft | 395 kts | 291° |
| 2026-05-06 01:25 | 49.30088 | -25.88619 | 34380 ft | 393 kts | 291° |
| 2026-05-06 01:25 | 49.31609 | -25.96628 | 34375 ft | 392 kts | 291° |
| 2026-05-06 01:26 | 49.33126 | -26.04651 | 34377 ft | 392 kts | 291° |
| 2026-05-06 01:26 | 49.34636 | -26.12668 | 34376 ft | 391 kts | 291° |
| 2026-05-06 01:27 | 49.36134 | -26.20657 | 34377 ft | 392 kts | 291° |
| 2026-05-06 01:27 | 49.37631 | -26.28678 | 34373 ft | 389 kts | 291° |
| 2026-05-06 01:28 | 49.39109 | -26.36627 | 34373 ft | 390 kts | 291° |
| 2026-05-06 01:28 | 49.40597 | -26.44665 | 34369 ft | 392 kts | 291° |
| 2026-05-06 01:29 | 49.42065 | -26.52633 | 34373 ft | 390 kts | 291° |
| 2026-05-06 01:29 | 49.43533 | -26.60638 | 34363 ft | 389 kts | 291° |
| 2026-05-06 01:30 | 49.44981 | -26.68560 | 34375 ft | 388 kts | 290° |
| 2026-05-06 01:30 | 49.46436 | -26.76558 | 34375 ft | 389 kts | 290° |
| 2026-05-06 01:31 | 49.47879 | -26.84528 | 34373 ft | 387 kts | 290° |
| 2026-05-06 01:31 | 49.49310 | -26.92460 | 34373 ft | 389 kts | 290° |
| 2026-05-06 01:32 | 49.50740 | -27.00437 | 34367 ft | 387 kts | 290° |
| 2026-05-06 01:32 | 49.52159 | -27.08371 | 34365 ft | 387 kts | 291° |
| 2026-05-06 01:33 | 49.53590 | -27.16407 | 34369 ft | 390 kts | 290° |
| 2026-05-06 01:33 | 49.55003 | -27.24389 | 34365 ft | 388 kts | 290° |
| 2026-05-06 01:34 | 49.56416 | -27.32392 | 34365 ft | 388 kts | 290° |
| 2026-05-06 01:34 | 49.57818 | -27.40382 | 34365 ft | 389 kts | 290° |
| 2026-05-06 01:35 | 49.59236 | -27.48500 | 34361 ft | 390 kts | 290° |
| 2026-05-06 01:35 | 49.60631 | -27.56517 | 34359 ft | 389 kts | 290° |
| 2026-05-06 01:36 | 49.62032 | -27.64608 | 34365 ft | 392 kts | 290° |
| 2026-05-06 01:36 | 49.63438 | -27.72768 | 34364 ft | 392 kts | 289° |
| 2026-05-06 01:37 | 49.64818 | -27.80808 | 34368 ft | 391 kts | 289° |
| 2026-05-06 01:37 | 49.66208 | -27.88942 | 34368 ft | 392 kts | 289° |
| 2026-05-06 01:38 | 49.67575 | -27.96995 | 34361 ft | 391 kts | 289° |
| 2026-05-06 01:38 | 49.68959 | -28.05172 | 34364 ft | 394 kts | 289° |
| 2026-05-06 01:39 | 49.70338 | -28.13357 | 34359 ft | 394 kts | 289° |
| 2026-05-06 01:39 | 49.71701 | -28.21495 | 34356 ft | 392 kts | 289° |
| 2026-05-06 01:40 | 49.73059 | -28.29633 | 34353 ft | 394 kts | 289° |
| 2026-05-06 01:40 | 49.74415 | -28.37804 | 34349 ft | 394 kts | 289° |
| 2026-05-06 01:41 | 49.75773 | -28.46021 | 34346 ft | 395 kts | 289° |
| 2026-05-06 01:41 | 49.77118 | -28.54203 | 34342 ft | 396 kts | 289° |
| 2026-05-06 01:42 | 49.78523 | -28.62791 | 34346 ft | 397 kts | 288° |
| 2026-05-06 01:42 | 49.79875 | -28.71098 | 34352 ft | 398 kts | 288° |
| 2026-05-06 01:43 | 49.81209 | -28.79337 | 34345 ft | 398 kts | 288° |
| 2026-05-06 01:43 | 49.82549 | -28.87648 | 34339 ft | 399 kts | 288° |
| 2026-05-06 01:44 | 49.83884 | -28.95973 | 34340 ft | 400 kts | 288° |
| 2026-05-06 01:44 | 49.85216 | -29.04320 | 34337 ft | 400 kts | 288° |
| 2026-05-06 01:45 | 49.86533 | -29.12623 | 34336 ft | 401 kts | 288° |
| 2026-05-06 01:45 | 49.87857 | -29.21002 | 34335 ft | 402 kts | 288° |
| 2026-05-06 01:46 | 49.89182 | -29.29424 | 34335 ft | 403 kts | 288° |
| 2026-05-06 01:46 | 49.90493 | -29.37818 | 34328 ft | 402 kts | 288° |
| 2026-05-06 01:47 | 49.91807 | -29.46265 | 34331 ft | 404 kts | 287° |
| 2026-05-06 01:47 | 49.93115 | -29.54717 | 34332 ft | 405 kts | 288° |
| 2026-05-06 01:48 | 49.94427 | -29.63241 | 34329 ft | 406 kts | 287° |
| 2026-05-06 01:48 | 49.95731 | -29.71765 | 34337 ft | 408 kts | 287° |
| 2026-05-06 01:49 | 49.97035 | -29.80326 | 34336 ft | 409 kts | 287° |
| 2026-05-06 01:49 | 49.98328 | -29.88857 | 34333 ft | 408 kts | 286° |
| 2026-05-06 01:50 | 49.99622 | -29.97450 | 34334 ft | 409 kts | 287° |
| 2026-05-06 01:50 | 50.01380 | -30.05810 | 34345 ft | 408 kts | 295° |
| 2026-05-06 01:51 | 50.03492 | -30.13973 | 34335 ft | 408 kts | 294° |
| 2026-05-06 01:51 | 50.05565 | -30.22148 | 34331 ft | 408 kts | 294° |
| 2026-05-06 01:52 | 50.07625 | -30.30351 | 34324 ft | 410 kts | 293° |
| 2026-05-06 01:52 | 50.09679 | -30.38585 | 34324 ft | 409 kts | 293° |
| 2026-05-06 01:53 | 50.11745 | -30.46904 | 34332 ft | 411 kts | 293° |
| 2026-05-06 01:53 | 50.13789 | -30.55173 | 34326 ft | 410 kts | 293° |
| 2026-05-06 01:54 | 50.15835 | -30.63477 | 34325 ft | 411 kts | 293° |
| 2026-05-06 01:54 | 50.17877 | -30.71799 | 34333 ft | 413 kts | 292° |
| 2026-05-06 01:55 | 50.19912 | -30.80126 | 34324 ft | 412 kts | 292° |
| 2026-05-06 01:55 | 50.21954 | -30.88510 | 34321 ft | 413 kts | 292° |
| 2026-05-06 01:56 | 50.23977 | -30.96853 | 34322 ft | 413 kts | 292° |
| 2026-05-06 01:56 | 50.26011 | -31.05269 | 34319 ft | 415 kts | 292° |
| 2026-05-06 01:57 | 50.28040 | -31.13701 | 34318 ft | 415 kts | 292° |
| 2026-05-06 01:57 | 50.30053 | -31.22092 | 34315 ft | 414 kts | 291° |
| 2026-05-06 01:58 | 50.32063 | -31.30505 | 34317 ft | 416 kts | 291° |
| 2026-05-06 01:58 | 50.34093 | -31.39037 | 34317 ft | 418 kts | 291° |
| 2026-05-06 01:59 | 50.36096 | -31.47487 | 34311 ft | 417 kts | 291° |
| 2026-05-06 01:59 | 50.38110 | -31.56019 | 34309 ft | 419 kts | 291° |
| 2026-05-06 02:00 | 50.40118 | -31.64561 | 34305 ft | 418 kts | 291° |
| 2026-05-06 02:00 | 50.42128 | -31.73139 | 34312 ft | 421 kts | 290° |
| 2026-05-06 02:01 | 50.44120 | -31.81677 | 34311 ft | 420 kts | 290° |
| 2026-05-06 02:01 | 50.46131 | -31.90331 | 34312 ft | 422 kts | 290° |
| 2026-05-06 02:02 | 50.48124 | -31.98945 | 34308 ft | 421 kts | 290° |
| 2026-05-06 02:02 | 50.50109 | -32.07559 | 34300 ft | 422 kts | 290° |
| 2026-05-06 02:03 | 50.52087 | -32.16177 | 34305 ft | 424 kts | 290° |
| 2026-05-06 02:03 | 50.54087 | -32.24925 | 34306 ft | 423 kts | 290° |
| 2026-05-06 02:04 | 50.56053 | -32.33559 | 34310 ft | 425 kts | 290° |
| 2026-05-06 02:04 | 50.58038 | -32.42314 | 34303 ft | 425 kts | 290° |
| 2026-05-06 02:05 | 50.60019 | -32.51087 | 34295 ft | 426 kts | 290° |
| 2026-05-06 02:05 | 50.61986 | -32.59835 | 34287 ft | 426 kts | 290° |
| 2026-05-06 02:06 | 50.63949 | -32.68599 | 34295 ft | 428 kts | 289° |
| 2026-05-06 02:06 | 50.65923 | -32.77451 | 34287 ft | 429 kts | 289° |
| 2026-05-06 02:07 | 50.67887 | -32.86295 | 34287 ft | 428 kts | 289° |
| 2026-05-06 02:07 | 50.69845 | -32.95151 | 34288 ft | 429 kts | 289° |
| 2026-05-06 02:08 | 50.71797 | -33.04019 | 34283 ft | 429 kts | 289° |
| 2026-05-06 02:08 | 50.73741 | -33.12883 | 34276 ft | 430 kts | 289° |
| 2026-05-06 02:09 | 50.75682 | -33.21775 | 34276 ft | 432 kts | 289° |
| 2026-05-06 02:09 | 50.77632 | -33.30744 | 34269 ft | 431 kts | 288° |
| 2026-05-06 02:10 | 50.79567 | -33.39690 | 34269 ft | 433 kts | 288° |
| 2026-05-06 02:10 | 50.81514 | -33.48726 | 34276 ft | 434 kts | 288° |
| 2026-05-06 02:11 | 50.82475 | -33.53208 | 34471 ft | 441 kts | 288° |
| 2026-05-06 02:11 | 50.83453 | -33.57766 | 35264 ft | 438 kts | 288° |
| 2026-05-06 02:11 | 50.84420 | -33.62286 | 36112 ft | 430 kts | 288° |
| 2026-05-06 02:11 | 50.85372 | -33.66752 | 36243 ft | 431 kts | 287° |
| 2026-05-06 02:12 | 50.87276 | -33.75708 | 36262 ft | 431 kts | 287° |
| 2026-05-06 02:12 | 50.89182 | -33.84716 | 36255 ft | 432 kts | 287° |
| 2026-05-06 02:13 | 50.91070 | -33.93673 | 36254 ft | 433 kts | 287° |